sensor_id;sensor_type;location;lat;lon;timestamp;P1;durP1;ratioP1;P2;durP2;ratioP2
78312;SDS011;67568;47.438;21.408;2023-06-10T00:02:21;9.50;;;5.90;;
78312;SDS011;67568;47.438;21.408;2023-06-10T00:04:48;11.25;;;6.43;;
78312;SDS011;67568;47.438;21.408;2023-06-10T00:07:15;12.05;;;6.13;;
78312;SDS011;67568;47.438;21.408;2023-06-10T00:09:43;10.98;;;6.60;;
78312;SDS011;67568;47.438;21.408;2023-06-10T00:12:10;11.73;;;6.67;;
78312;SDS011;67568;47.438;21.408;2023-06-10T00:14:37;14.32;;;6.47;;
78312;SDS011;67568;47.438;21.408;2023-06-10T00:17:06;12.25;;;6.80;;
78312;SDS011;67568;47.438;21.408;2023-06-10T00:19:33;10.85;;;6.25;;
78312;SDS011;67568;47.438;21.408;2023-06-10T00:21:59;11.75;;;6.60;;
78312;SDS011;67568;47.438;21.408;2023-06-10T00:24:26;9.97;;;6.57;;
78312;SDS011;67568;47.438;21.408;2023-06-10T00:26:55;11.05;;;6.82;;
78312;SDS011;67568;47.438;21.408;2023-06-10T00:29:22;10.35;;;6.72;;
78312;SDS011;67568;47.438;21.408;2023-06-10T00:31:49;10.73;;;6.50;;
78312;SDS011;67568;47.438;21.408;2023-06-10T00:34:16;13.23;;;7.03;;
78312;SDS011;67568;47.438;21.408;2023-06-10T00:36:42;12.03;;;7.63;;
78312;SDS011;67568;47.438;21.408;2023-06-10T00:39:16;13.68;;;7.55;;
78312;SDS011;67568;47.438;21.408;2023-06-10T00:41:43;12.88;;;7.35;;
78312;SDS011;67568;47.438;21.408;2023-06-10T00:44:10;12.82;;;7.90;;
78312;SDS011;67568;47.438;21.408;2023-06-10T00:46:39;12.30;;;7.60;;
78312;SDS011;67568;47.438;21.408;2023-06-10T00:49:07;13.30;;;7.13;;
78312;SDS011;67568;47.438;21.408;2023-06-10T00:51:34;15.45;;;7.93;;
78312;SDS011;67568;47.438;21.408;2023-06-10T00:54:01;13.52;;;6.95;;
78312;SDS011;67568;47.438;21.408;2023-06-10T00:56:29;14.15;;;7.70;;
78312;SDS011;67568;47.438;21.408;2023-06-10T00:58:56;13.23;;;7.82;;
78312;SDS011;67568;47.438;21.408;2023-06-10T01:01:22;12.60;;;7.30;;
78312;SDS011;67568;47.438;21.408;2023-06-10T01:03:49;12.43;;;7.38;;
78312;SDS011;67568;47.438;21.408;2023-06-10T01:11:46;29.40;;;8.00;;
78312;SDS011;67568;47.438;21.408;2023-06-10T01:14:18;15.73;;;7.27;;
78312;SDS011;67568;47.438;21.408;2023-06-10T01:16:46;13.80;;;6.78;;
78312;SDS011;67568;47.438;21.408;2023-06-10T01:19:14;14.60;;;6.53;;
78312;SDS011;67568;47.438;21.408;2023-06-10T01:21:40;10.73;;;6.00;;
78312;SDS011;67568;47.438;21.408;2023-06-10T01:24:07;11.00;;;5.85;;
78312;SDS011;67568;47.438;21.408;2023-06-10T01:26:34;8.93;;;5.30;;
78312;SDS011;67568;47.438;21.408;2023-06-10T01:29:11;11.02;;;6.43;;
78312;SDS011;67568;47.438;21.408;2023-06-10T01:31:45;12.32;;;5.90;;
78312;SDS011;67568;47.438;21.408;2023-06-10T01:34:19;10.02;;;5.93;;
78312;SDS011;67568;47.438;21.408;2023-06-10T01:36:47;12.65;;;6.18;;
78312;SDS011;67568;47.438;21.408;2023-06-10T01:39:16;12.20;;;6.37;;
78312;SDS011;67568;47.438;21.408;2023-06-10T01:41:47;12.98;;;6.75;;
78312;SDS011;67568;47.438;21.408;2023-06-10T01:44:18;9.75;;;5.93;;
78312;SDS011;67568;47.438;21.408;2023-06-10T01:46:46;12.30;;;6.65;;
78312;SDS011;67568;47.438;21.408;2023-06-10T01:49:13;11.27;;;6.75;;
78312;SDS011;67568;47.438;21.408;2023-06-10T01:51:42;11.93;;;6.90;;
78312;SDS011;67568;47.438;21.408;2023-06-10T01:54:12;12.38;;;7.18;;
78312;SDS011;67568;47.438;21.408;2023-06-10T01:56:42;13.98;;;7.43;;
78312;SDS011;67568;47.438;21.408;2023-06-10T01:59:09;13.50;;;7.40;;
78312;SDS011;67568;47.438;21.408;2023-06-10T02:01:36;12.23;;;7.40;;
78312;SDS011;67568;47.438;21.408;2023-06-10T02:04:03;11.90;;;7.07;;
78312;SDS011;67568;47.438;21.408;2023-06-10T02:06:30;14.85;;;7.00;;
78312;SDS011;67568;47.438;21.408;2023-06-10T02:08:56;12.23;;;7.80;;
78312;SDS011;67568;47.438;21.408;2023-06-10T02:11:23;12.18;;;6.85;;
78312;SDS011;67568;47.438;21.408;2023-06-10T02:13:50;12.05;;;6.88;;
78312;SDS011;67568;47.438;21.408;2023-06-10T02:16:17;13.43;;;7.57;;
78312;SDS011;67568;47.438;21.408;2023-06-10T02:18:44;12.30;;;6.68;;
78312;SDS011;67568;47.438;21.408;2023-06-10T02:21:11;12.85;;;7.50;;
78312;SDS011;67568;47.438;21.408;2023-06-10T02:23:37;15.15;;;7.53;;
78312;SDS011;67568;47.438;21.408;2023-06-10T02:26:06;11.88;;;7.45;;
78312;SDS011;67568;47.438;21.408;2023-06-10T02:28:36;12.73;;;7.03;;
78312;SDS011;67568;47.438;21.408;2023-06-10T02:31:02;14.65;;;7.43;;
78312;SDS011;67568;47.438;21.408;2023-06-10T02:33:39;10.77;;;7.15;;
78312;SDS011;67568;47.438;21.408;2023-06-10T02:36:08;14.30;;;7.22;;
78312;SDS011;67568;47.438;21.408;2023-06-10T02:38:35;12.57;;;7.68;;
78312;SDS011;67568;47.438;21.408;2023-06-10T02:41:02;10.77;;;6.90;;
78312;SDS011;67568;47.438;21.408;2023-06-10T02:43:36;15.00;;;7.80;;
78312;SDS011;67568;47.438;21.408;2023-06-10T02:46:03;16.63;;;7.85;;
78312;SDS011;67568;47.438;21.408;2023-06-10T02:48:30;13.18;;;7.45;;
78312;SDS011;67568;47.438;21.408;2023-06-10T02:50:57;11.52;;;6.97;;
78312;SDS011;67568;47.438;21.408;2023-06-10T02:53:23;14.10;;;8.07;;
78312;SDS011;67568;47.438;21.408;2023-06-10T02:55:53;13.63;;;8.05;;
78312;SDS011;67568;47.438;21.408;2023-06-10T02:58:19;15.38;;;7.95;;
78312;SDS011;67568;47.438;21.408;2023-06-10T03:00:46;12.32;;;7.70;;
78312;SDS011;67568;47.438;21.408;2023-06-10T03:03:17;13.93;;;8.63;;
78312;SDS011;67568;47.438;21.408;2023-06-10T03:05:47;14.77;;;8.73;;
78312;SDS011;67568;47.438;21.408;2023-06-10T03:08:14;16.05;;;8.35;;
78312;SDS011;67568;47.438;21.408;2023-06-10T03:10:41;14.15;;;9.23;;
78312;SDS011;67568;47.438;21.408;2023-06-10T03:13:07;14.55;;;8.90;;
78312;SDS011;67568;47.438;21.408;2023-06-10T03:15:34;14.93;;;8.60;;
78312;SDS011;67568;47.438;21.408;2023-06-10T03:18:04;14.73;;;8.57;;
78312;SDS011;67568;47.438;21.408;2023-06-10T03:20:31;15.10;;;9.13;;
78312;SDS011;67568;47.438;21.408;2023-06-10T03:23:00;16.80;;;9.48;;
78312;SDS011;67568;47.438;21.408;2023-06-10T03:25:27;13.50;;;9.18;;
78312;SDS011;67568;47.438;21.408;2023-06-10T03:27:54;13.55;;;8.77;;
78312;SDS011;67568;47.438;21.408;2023-06-10T03:30:23;17.27;;;9.07;;
78312;SDS011;67568;47.438;21.408;2023-06-10T03:32:52;13.93;;;9.30;;
78312;SDS011;67568;47.438;21.408;2023-06-10T03:35:23;15.20;;;9.32;;
78312;SDS011;67568;47.438;21.408;2023-06-10T03:37:54;18.75;;;9.82;;
78312;SDS011;67568;47.438;21.408;2023-06-10T03:40:21;19.73;;;10.05;;
78312;SDS011;67568;47.438;21.408;2023-06-10T03:43:00;16.37;;;10.47;;
78312;SDS011;67568;47.438;21.408;2023-06-10T03:45:27;19.20;;;10.38;;
78312;SDS011;67568;47.438;21.408;2023-06-10T03:47:54;16.05;;;10.50;;
78312;SDS011;67568;47.438;21.408;2023-06-10T03:50:22;22.27;;;10.75;;
78312;SDS011;67568;47.438;21.408;2023-06-10T03:52:52;20.67;;;10.75;;
78312;SDS011;67568;47.438;21.408;2023-06-10T03:55:18;20.00;;;11.10;;
78312;SDS011;67568;47.438;21.408;2023-06-10T03:57:45;19.90;;;10.77;;
78312;SDS011;67568;47.438;21.408;2023-06-10T04:00:12;19.52;;;11.60;;
78312;SDS011;67568;47.438;21.408;2023-06-10T04:02:42;16.13;;;10.25;;
78312;SDS011;67568;47.438;21.408;2023-06-10T04:05:15;15.32;;;9.07;;
78312;SDS011;67568;47.438;21.408;2023-06-10T04:07:42;14.73;;;8.43;;
78312;SDS011;67568;47.438;21.408;2023-06-10T04:10:10;12.57;;;7.88;;
78312;SDS011;67568;47.438;21.408;2023-06-10T04:12:40;15.10;;;8.20;;
78312;SDS011;67568;47.438;21.408;2023-06-10T04:15:07;12.10;;;7.40;;
78312;SDS011;67568;47.438;21.408;2023-06-10T04:17:35;12.25;;;7.32;;
78312;SDS011;67568;47.438;21.408;2023-06-10T04:20:02;16.13;;;8.60;;
78312;SDS011;67568;47.438;21.408;2023-06-10T04:22:29;14.90;;;7.05;;
78312;SDS011;67568;47.438;21.408;2023-06-10T04:24:56;13.13;;;6.45;;
78312;SDS011;67568;47.438;21.408;2023-06-10T04:27:23;12.02;;;7.47;;
78312;SDS011;67568;47.438;21.408;2023-06-10T04:29:49;16.48;;;6.68;;
78312;SDS011;67568;47.438;21.408;2023-06-10T04:32:16;15.47;;;7.10;;
78312;SDS011;67568;47.438;21.408;2023-06-10T04:34:43;12.32;;;7.03;;
78312;SDS011;67568;47.438;21.408;2023-06-10T04:37:09;14.75;;;7.60;;
78312;SDS011;67568;47.438;21.408;2023-06-10T04:39:39;15.95;;;7.55;;
78312;SDS011;67568;47.438;21.408;2023-06-10T04:42:06;12.23;;;7.20;;
78312;SDS011;67568;47.438;21.408;2023-06-10T04:44:33;10.93;;;6.87;;
78312;SDS011;67568;47.438;21.408;2023-06-10T04:47:00;15.60;;;7.65;;
78312;SDS011;67568;47.438;21.408;2023-06-10T04:49:26;15.07;;;7.63;;
78312;SDS011;67568;47.438;21.408;2023-06-10T04:51:53;13.38;;;7.80;;
78312;SDS011;67568;47.438;21.408;2023-06-10T04:54:20;12.15;;;7.10;;
78312;SDS011;67568;47.438;21.408;2023-06-10T04:56:46;14.47;;;7.30;;
78312;SDS011;67568;47.438;21.408;2023-06-10T04:59:13;12.98;;;7.05;;
78312;SDS011;67568;47.438;21.408;2023-06-10T05:01:40;13.15;;;6.85;;
78312;SDS011;67568;47.438;21.408;2023-06-10T05:04:10;15.05;;;7.55;;
78312;SDS011;67568;47.438;21.408;2023-06-10T05:06:37;11.80;;;7.60;;
78312;SDS011;67568;47.438;21.408;2023-06-10T05:09:04;17.50;;;7.40;;
78312;SDS011;67568;47.438;21.408;2023-06-10T05:11:31;13.23;;;6.93;;
78312;SDS011;67568;47.438;21.408;2023-06-10T05:13:57;18.30;;;6.95;;
78312;SDS011;67568;47.438;21.408;2023-06-10T05:16:24;14.65;;;7.28;;
78312;SDS011;67568;47.438;21.408;2023-06-10T05:18:51;15.02;;;7.22;;
78312;SDS011;67568;47.438;21.408;2023-06-10T05:21:23;17.13;;;7.57;;
78312;SDS011;67568;47.438;21.408;2023-06-10T05:23:55;13.23;;;7.57;;
78312;SDS011;67568;47.438;21.408;2023-06-10T05:26:22;12.55;;;7.45;;
78312;SDS011;67568;47.438;21.408;2023-06-10T05:28:49;12.25;;;7.63;;
78312;SDS011;67568;47.438;21.408;2023-06-10T05:31:19;13.10;;;7.38;;
78312;SDS011;67568;47.438;21.408;2023-06-10T05:33:48;15.83;;;7.97;;
78312;SDS011;67568;47.438;21.408;2023-06-10T05:36:14;16.55;;;7.50;;
78312;SDS011;67568;47.438;21.408;2023-06-10T05:38:41;13.25;;;6.95;;
78312;SDS011;67568;47.438;21.408;2023-06-10T05:41:08;17.67;;;7.22;;
78312;SDS011;67568;47.438;21.408;2023-06-10T05:43:35;14.63;;;7.38;;
78312;SDS011;67568;47.438;21.408;2023-06-10T05:46:01;18.93;;;9.67;;
78312;SDS011;67568;47.438;21.408;2023-06-10T05:48:28;14.07;;;6.85;;
78312;SDS011;67568;47.438;21.408;2023-06-10T05:50:58;13.05;;;7.00;;
78312;SDS011;67568;47.438;21.408;2023-06-10T05:53:24;14.05;;;8.48;;
78312;SDS011;67568;47.438;21.408;2023-06-10T05:55:51;12.93;;;8.23;;
78312;SDS011;67568;47.438;21.408;2023-06-10T05:58:18;15.93;;;8.87;;
78312;SDS011;67568;47.438;21.408;2023-06-10T06:00:51;12.88;;;7.82;;
78312;SDS011;67568;47.438;21.408;2023-06-10T06:03:18;14.43;;;8.20;;
78312;SDS011;67568;47.438;21.408;2023-06-10T06:05:45;14.05;;;8.02;;
78312;SDS011;67568;47.438;21.408;2023-06-10T06:08:12;15.32;;;8.30;;
78312;SDS011;67568;47.438;21.408;2023-06-10T06:10:39;12.97;;;7.13;;
78312;SDS011;67568;47.438;21.408;2023-06-10T06:13:06;14.05;;;7.10;;
78312;SDS011;67568;47.438;21.408;2023-06-10T06:15:32;14.45;;;6.90;;
78312;SDS011;67568;47.438;21.408;2023-06-10T06:17:59;16.52;;;6.88;;
78312;SDS011;67568;47.438;21.408;2023-06-10T06:20:26;11.38;;;6.22;;
78312;SDS011;67568;47.438;21.408;2023-06-10T06:22:53;11.20;;;5.80;;
78312;SDS011;67568;47.438;21.408;2023-06-10T06:25:19;14.43;;;6.15;;
78312;SDS011;67568;47.438;21.408;2023-06-10T06:27:46;10.65;;;6.32;;
78312;SDS011;67568;47.438;21.408;2023-06-10T06:30:13;12.77;;;6.95;;
78312;SDS011;67568;47.438;21.408;2023-06-10T06:32:40;12.13;;;7.20;;
78312;SDS011;67568;47.438;21.408;2023-06-10T06:35:09;12.67;;;6.97;;
78312;SDS011;67568;47.438;21.408;2023-06-10T06:37:36;15.38;;;7.32;;
78312;SDS011;67568;47.438;21.408;2023-06-10T06:40:03;14.75;;;7.25;;
78312;SDS011;67568;47.438;21.408;2023-06-10T06:42:41;11.13;;;6.88;;
78312;SDS011;67568;47.438;21.408;2023-06-10T06:45:08;11.65;;;6.57;;
78312;SDS011;67568;47.438;21.408;2023-06-10T06:47:41;11.27;;;6.47;;
78312;SDS011;67568;47.438;21.408;2023-06-10T06:50:13;13.32;;;6.60;;
78312;SDS011;67568;47.438;21.408;2023-06-10T06:52:43;10.98;;;5.97;;
78312;SDS011;67568;47.438;21.408;2023-06-10T06:55:10;12.27;;;6.18;;
78312;SDS011;67568;47.438;21.408;2023-06-10T06:57:38;12.07;;;6.47;;
78312;SDS011;67568;47.438;21.408;2023-06-10T07:00:05;14.73;;;5.93;;
78312;SDS011;67568;47.438;21.408;2023-06-10T07:02:32;11.07;;;5.78;;
78312;SDS011;67568;47.438;21.408;2023-06-10T07:04:59;11.07;;;4.88;;
78312;SDS011;67568;47.438;21.408;2023-06-10T07:07:25;10.88;;;5.90;;
78312;SDS011;67568;47.438;21.408;2023-06-10T07:09:52;10.02;;;5.38;;
78312;SDS011;67568;47.438;21.408;2023-06-10T07:12:19;11.87;;;6.33;;
78312;SDS011;67568;47.438;21.408;2023-06-10T07:14:46;11.10;;;5.22;;
78312;SDS011;67568;47.438;21.408;2023-06-10T07:17:13;9.15;;;4.70;;
78312;SDS011;67568;47.438;21.408;2023-06-10T07:19:39;8.77;;;4.93;;
78312;SDS011;67568;47.438;21.408;2023-06-10T07:22:06;9.75;;;4.88;;
78312;SDS011;67568;47.438;21.408;2023-06-10T07:24:33;9.13;;;4.87;;
78312;SDS011;67568;47.438;21.408;2023-06-10T07:27:00;8.43;;;4.50;;
78312;SDS011;67568;47.438;21.408;2023-06-10T07:29:28;9.15;;;3.95;;
78312;SDS011;67568;47.438;21.408;2023-06-10T07:31:55;8.23;;;4.30;;
78312;SDS011;67568;47.438;21.408;2023-06-10T07:34:21;9.50;;;3.90;;
78312;SDS011;67568;47.438;21.408;2023-06-10T07:36:48;8.40;;;3.40;;
78312;SDS011;67568;47.438;21.408;2023-06-10T07:39:15;7.90;;;3.30;;
78312;SDS011;67568;47.438;21.408;2023-06-10T07:41:44;8.38;;;3.33;;
78312;SDS011;67568;47.438;21.408;2023-06-10T07:44:11;9.98;;;3.80;;
78312;SDS011;67568;47.438;21.408;2023-06-10T07:46:38;6.88;;;3.72;;
78312;SDS011;67568;47.438;21.408;2023-06-10T07:49:05;8.10;;;3.50;;
78312;SDS011;67568;47.438;21.408;2023-06-10T07:51:31;7.68;;;2.97;;
78312;SDS011;67568;47.438;21.408;2023-06-10T07:53:58;8.98;;;3.65;;
78312;SDS011;67568;47.438;21.408;2023-06-10T07:56:25;8.00;;;3.53;;
78312;SDS011;67568;47.438;21.408;2023-06-10T07:58:52;8.38;;;3.90;;
78312;SDS011;67568;47.438;21.408;2023-06-10T08:01:18;9.30;;;3.87;;
78312;SDS011;67568;47.438;21.408;2023-06-10T08:03:45;9.05;;;4.18;;
78312;SDS011;67568;47.438;21.408;2023-06-10T08:06:12;7.57;;;3.35;;
78312;SDS011;67568;47.438;21.408;2023-06-10T08:08:39;10.88;;;3.80;;
78312;SDS011;67568;47.438;21.408;2023-06-10T08:11:10;6.93;;;3.40;;
78312;SDS011;67568;47.438;21.408;2023-06-10T08:13:39;7.83;;;3.63;;
78312;SDS011;67568;47.438;21.408;2023-06-10T08:16:06;8.32;;;3.90;;
78312;SDS011;67568;47.438;21.408;2023-06-10T08:18:33;7.10;;;3.42;;
78312;SDS011;67568;47.438;21.408;2023-06-10T08:21:00;8.10;;;4.00;;
78312;SDS011;67568;47.438;21.408;2023-06-10T08:23:30;6.78;;;3.60;;
78312;SDS011;67568;47.438;21.408;2023-06-10T08:25:57;8.43;;;4.00;;
78312;SDS011;67568;47.438;21.408;2023-06-10T08:28:23;7.88;;;3.45;;
78312;SDS011;67568;47.438;21.408;2023-06-10T08:30:50;6.90;;;3.60;;
78312;SDS011;67568;47.438;21.408;2023-06-10T08:33:17;7.38;;;3.00;;
78312;SDS011;67568;47.438;21.408;2023-06-10T08:35:44;6.80;;;3.00;;
78312;SDS011;67568;47.438;21.408;2023-06-10T08:38:11;6.07;;;2.87;;
78312;SDS011;67568;47.438;21.408;2023-06-10T08:40:38;7.57;;;3.00;;
78312;SDS011;67568;47.438;21.408;2023-06-10T08:43:06;6.32;;;3.00;;
78312;SDS011;67568;47.438;21.408;2023-06-10T08:45:37;6.05;;;2.90;;
78312;SDS011;67568;47.438;21.408;2023-06-10T08:48:03;6.88;;;2.80;;
78312;SDS011;67568;47.438;21.408;2023-06-10T08:50:36;6.97;;;2.60;;
78312;SDS011;67568;47.438;21.408;2023-06-10T08:53:04;6.95;;;2.75;;
78312;SDS011;67568;47.438;21.408;2023-06-10T08:55:35;6.63;;;3.03;;
78312;SDS011;67568;47.438;21.408;2023-06-10T08:58:05;7.22;;;2.85;;
78312;SDS011;67568;47.438;21.408;2023-06-10T09:00:32;6.85;;;3.05;;
78312;SDS011;67568;47.438;21.408;2023-06-10T09:03:01;6.90;;;2.87;;
78312;SDS011;67568;47.438;21.408;2023-06-10T09:05:34;6.70;;;3.47;;
78312;SDS011;67568;47.438;21.408;2023-06-10T09:08:04;6.20;;;2.95;;
78312;SDS011;67568;47.438;21.408;2023-06-10T09:10:32;6.75;;;3.10;;
78312;SDS011;67568;47.438;21.408;2023-06-10T09:12:59;10.57;;;3.08;;
78312;SDS011;67568;47.438;21.408;2023-06-10T09:15:26;5.63;;;2.63;;
78312;SDS011;67568;47.438;21.408;2023-06-10T09:17:53;7.43;;;2.92;;
78312;SDS011;67568;47.438;21.408;2023-06-10T09:20:21;5.93;;;2.75;;
78312;SDS011;67568;47.438;21.408;2023-06-10T09:22:50;5.63;;;2.60;;
78312;SDS011;67568;47.438;21.408;2023-06-10T09:25:17;6.05;;;2.50;;
78312;SDS011;67568;47.438;21.408;2023-06-10T09:30:29;5.03;;;2.45;;
78312;SDS011;67568;47.438;21.408;2023-06-10T09:32:58;5.90;;;2.63;;
78312;SDS011;67568;47.438;21.408;2023-06-10T09:35:30;5.00;;;2.45;;
78312;SDS011;67568;47.438;21.408;2023-06-10T09:37:58;5.40;;;2.38;;
78312;SDS011;67568;47.438;21.408;2023-06-10T09:40:26;5.23;;;2.07;;
78312;SDS011;67568;47.438;21.408;2023-06-10T09:42:54;6.78;;;2.30;;
78312;SDS011;67568;47.438;21.408;2023-06-10T09:45:21;5.90;;;2.63;;
78312;SDS011;67568;47.438;21.408;2023-06-10T09:47:52;4.80;;;2.42;;
78312;SDS011;67568;47.438;21.408;2023-06-10T09:50:20;5.90;;;2.67;;
78312;SDS011;67568;47.438;21.408;2023-06-10T09:52:47;6.20;;;2.80;;
78312;SDS011;67568;47.438;21.408;2023-06-10T09:55:14;5.15;;;2.53;;
78312;SDS011;67568;47.438;21.408;2023-06-10T09:57:41;8.07;;;2.63;;
78312;SDS011;67568;47.438;21.408;2023-06-10T10:00:08;5.10;;;2.30;;
78312;SDS011;67568;47.438;21.408;2023-06-10T10:02:44;4.50;;;2.22;;
78312;SDS011;67568;47.438;21.408;2023-06-10T10:05:16;5.47;;;2.20;;
78312;SDS011;67568;47.438;21.408;2023-06-10T10:07:43;6.43;;;2.20;;
78312;SDS011;67568;47.438;21.408;2023-06-10T10:10:11;4.82;;;1.85;;
78312;SDS011;67568;47.438;21.408;2023-06-10T10:12:40;6.00;;;2.13;;
78312;SDS011;67568;47.438;21.408;2023-06-10T10:15:10;6.05;;;2.50;;
78312;SDS011;67568;47.438;21.408;2023-06-10T10:17:39;5.20;;;2.37;;
78312;SDS011;67568;47.438;21.408;2023-06-10T10:20:09;4.90;;;2.10;;
78312;SDS011;67568;47.438;21.408;2023-06-10T10:22:39;5.10;;;2.22;;
78312;SDS011;67568;47.438;21.408;2023-06-10T10:25:22;4.75;;;2.20;;
78312;SDS011;67568;47.438;21.408;2023-06-10T10:27:55;5.28;;;2.10;;
78312;SDS011;67568;47.438;21.408;2023-06-10T10:30:37;5.27;;;2.30;;
78312;SDS011;67568;47.438;21.408;2023-06-10T10:33:09;4.15;;;2.08;;
78312;SDS011;67568;47.438;21.408;2023-06-10T10:35:46;6.80;;;2.50;;
78312;SDS011;67568;47.438;21.408;2023-06-10T10:38:15;5.05;;;2.00;;
78312;SDS011;67568;47.438;21.408;2023-06-10T10:40:46;7.07;;;2.60;;
78312;SDS011;67568;47.438;21.408;2023-06-10T10:43:14;7.83;;;2.90;;
78312;SDS011;67568;47.438;21.408;2023-06-10T10:45:42;5.28;;;2.38;;
78312;SDS011;67568;47.438;21.408;2023-06-10T10:48:08;5.65;;;2.30;;
78312;SDS011;67568;47.438;21.408;2023-06-10T10:50:36;5.32;;;2.50;;
78312;SDS011;67568;47.438;21.408;2023-06-10T10:53:03;6.82;;;3.00;;
78312;SDS011;67568;47.438;21.408;2023-06-10T10:55:31;5.67;;;2.47;;
78312;SDS011;67568;47.438;21.408;2023-06-10T10:58:05;6.53;;;2.60;;
78312;SDS011;67568;47.438;21.408;2023-06-10T11:00:34;6.68;;;2.55;;
78312;SDS011;67568;47.438;21.408;2023-06-10T11:05:39;6.05;;;2.60;;
78312;SDS011;67568;47.438;21.408;2023-06-10T11:08:08;8.13;;;2.80;;
78312;SDS011;67568;47.438;21.408;2023-06-10T11:10:42;6.57;;;2.30;;
78312;SDS011;67568;47.438;21.408;2023-06-10T11:13:19;5.70;;;2.13;;
78312;SDS011;67568;47.438;21.408;2023-06-10T11:15:48;6.13;;;2.75;;
78312;SDS011;67568;47.438;21.408;2023-06-10T11:18:28;4.80;;;2.15;;
78312;SDS011;67568;47.438;21.408;2023-06-10T11:20:59;8.70;;;2.60;;
78312;SDS011;67568;47.438;21.408;2023-06-10T11:29:05;7.43;;;2.70;;
78312;SDS011;67568;47.438;21.408;2023-06-10T11:31:32;6.75;;;2.70;;
78312;SDS011;67568;47.438;21.408;2023-06-10T11:34:05;7.33;;;3.30;;
78312;SDS011;67568;47.438;21.408;2023-06-10T11:36:34;5.57;;;2.55;;
78312;SDS011;67568;47.438;21.408;2023-06-10T11:39:04;6.20;;;2.70;;
78312;SDS011;67568;47.438;21.408;2023-06-10T11:41:33;8.13;;;3.05;;
78312;SDS011;67568;47.438;21.408;2023-06-10T11:44:04;6.55;;;2.70;;
78312;SDS011;67568;47.438;21.408;2023-06-10T11:46:34;7.70;;;3.23;;
78312;SDS011;67568;47.438;21.408;2023-06-10T11:49:04;6.50;;;3.47;;
78312;SDS011;67568;47.438;21.408;2023-06-10T11:51:33;7.10;;;3.30;;
78312;SDS011;67568;47.438;21.408;2023-06-10T11:54:10;7.30;;;3.47;;
78312;SDS011;67568;47.438;21.408;2023-06-10T11:56:37;5.78;;;3.10;;
78312;SDS011;67568;47.438;21.408;2023-06-10T11:59:06;7.13;;;3.20;;
78312;SDS011;67568;47.438;21.408;2023-06-10T12:01:34;6.53;;;3.30;;
78312;SDS011;67568;47.438;21.408;2023-06-10T12:04:07;7.90;;;3.45;;
78312;SDS011;67568;47.438;21.408;2023-06-10T12:06:39;6.78;;;2.80;;
78312;SDS011;67568;47.438;21.408;2023-06-10T12:09:26;5.90;;;2.97;;
78312;SDS011;67568;47.438;21.408;2023-06-10T12:11:58;7.13;;;3.33;;
78312;SDS011;67568;47.438;21.408;2023-06-10T12:17:42;6.30;;;2.70;;
78312;SDS011;67568;47.438;21.408;2023-06-10T12:20:24;5.28;;;2.63;;
78312;SDS011;67568;47.438;21.408;2023-06-10T12:22:52;6.15;;;3.03;;
78312;SDS011;67568;47.438;21.408;2023-06-10T12:25:24;5.40;;;2.63;;
78312;SDS011;67568;47.438;21.408;2023-06-10T12:27:54;6.97;;;2.70;;
78312;SDS011;67568;47.438;21.408;2023-06-10T12:30:22;6.28;;;2.60;;
78312;SDS011;67568;47.438;21.408;2023-06-10T12:32:54;6.30;;;2.38;;
78312;SDS011;67568;47.438;21.408;2023-06-10T12:35:23;5.82;;;2.75;;
78312;SDS011;67568;47.438;21.408;2023-06-10T12:38:03;6.73;;;2.50;;
78312;SDS011;67568;47.438;21.408;2023-06-10T12:40:33;5.78;;;2.70;;
78312;SDS011;67568;47.438;21.408;2023-06-10T12:43:03;6.95;;;2.78;;
78312;SDS011;67568;47.438;21.408;2023-06-10T12:45:30;6.20;;;2.72;;
78312;SDS011;67568;47.438;21.408;2023-06-10T12:50:55;5.67;;;2.70;;
78312;SDS011;67568;47.438;21.408;2023-06-10T12:53:24;5.60;;;2.80;;
78312;SDS011;67568;47.438;21.408;2023-06-10T12:55:51;7.50;;;2.80;;
78312;SDS011;67568;47.438;21.408;2023-06-10T12:58:21;5.82;;;2.80;;
78312;SDS011;67568;47.438;21.408;2023-06-10T13:00:48;6.55;;;2.85;;
78312;SDS011;67568;47.438;21.408;2023-06-10T13:03:17;5.67;;;2.40;;
78312;SDS011;67568;47.438;21.408;2023-06-10T13:05:44;6.65;;;3.03;;
78312;SDS011;67568;47.438;21.408;2023-06-10T13:08:16;6.53;;;2.83;;
78312;SDS011;67568;47.438;21.408;2023-06-10T13:10:43;6.75;;;2.63;;
78312;SDS011;67568;47.438;21.408;2023-06-10T13:13:09;7.97;;;2.65;;
78312;SDS011;67568;47.438;21.408;2023-06-10T13:15:36;4.53;;;2.13;;
78312;SDS011;67568;47.438;21.408;2023-06-10T13:18:08;5.40;;;2.50;;
78312;SDS011;67568;47.438;21.408;2023-06-10T13:20:35;4.60;;;2.22;;
78312;SDS011;67568;47.438;21.408;2023-06-10T13:23:05;5.43;;;2.20;;
78312;SDS011;67568;47.438;21.408;2023-06-10T13:25:32;5.50;;;2.22;;
78312;SDS011;67568;47.438;21.408;2023-06-10T13:27:58;4.70;;;2.07;;
78312;SDS011;67568;47.438;21.408;2023-06-10T13:30:27;4.35;;;1.98;;
78312;SDS011;67568;47.438;21.408;2023-06-10T13:32:54;5.35;;;2.22;;
78312;SDS011;67568;47.438;21.408;2023-06-10T13:35:21;6.97;;;2.50;;
78312;SDS011;67568;47.438;21.408;2023-06-10T13:37:48;5.38;;;2.00;;
78312;SDS011;67568;47.438;21.408;2023-06-10T13:40:15;4.67;;;2.00;;
78312;SDS011;67568;47.438;21.408;2023-06-10T13:42:43;4.30;;;2.08;;
78312;SDS011;67568;47.438;21.408;2023-06-10T13:45:10;5.45;;;2.00;;
78312;SDS011;67568;47.438;21.408;2023-06-10T13:47:37;5.25;;;2.53;;
78312;SDS011;67568;47.438;21.408;2023-06-10T13:50:05;4.38;;;2.28;;
78312;SDS011;67568;47.438;21.408;2023-06-10T13:52:32;5.57;;;2.50;;
78312;SDS011;67568;47.438;21.408;2023-06-10T13:55:00;4.65;;;2.30;;
78312;SDS011;67568;47.438;21.408;2023-06-10T13:57:27;7.07;;;2.53;;
78312;SDS011;67568;47.438;21.408;2023-06-10T13:59:54;5.55;;;2.60;;
78312;SDS011;67568;47.438;21.408;2023-06-10T14:02:21;4.78;;;2.22;;
78312;SDS011;67568;47.438;21.408;2023-06-10T14:04:48;5.33;;;2.47;;
78312;SDS011;67568;47.438;21.408;2023-06-10T14:07:15;5.20;;;2.53;;
78312;SDS011;67568;47.438;21.408;2023-06-10T14:09:42;5.28;;;2.30;;
78312;SDS011;67568;47.438;21.408;2023-06-10T14:12:10;5.85;;;2.30;;
78312;SDS011;67568;47.438;21.408;2023-06-10T14:14:37;5.43;;;2.20;;
78312;SDS011;67568;47.438;21.408;2023-06-10T14:17:04;5.33;;;2.20;;
78312;SDS011;67568;47.438;21.408;2023-06-10T14:19:31;6.45;;;2.42;;
78312;SDS011;67568;47.438;21.408;2023-06-10T14:22:01;5.82;;;2.40;;
78312;SDS011;67568;47.438;21.408;2023-06-10T14:24:29;7.25;;;2.60;;
78312;SDS011;67568;47.438;21.408;2023-06-10T14:26:56;4.88;;;2.20;;
78312;SDS011;67568;47.438;21.408;2023-06-10T14:29:25;4.57;;;2.10;;
78312;SDS011;67568;47.438;21.408;2023-06-10T14:31:52;5.65;;;2.38;;
78312;SDS011;67568;47.438;21.408;2023-06-10T14:34:19;5.43;;;2.40;;
78312;SDS011;67568;47.438;21.408;2023-06-10T14:36:45;5.55;;;2.22;;
78312;SDS011;67568;47.438;21.408;2023-06-10T14:39:12;5.45;;;2.25;;
78312;SDS011;67568;47.438;21.408;2023-06-10T14:41:39;7.87;;;2.67;;
78312;SDS011;67568;47.438;21.408;2023-06-10T14:44:06;6.05;;;2.40;;
78312;SDS011;67568;47.438;21.408;2023-06-10T14:46:32;4.70;;;2.50;;
78312;SDS011;67568;47.438;21.408;2023-06-10T14:48:59;5.15;;;2.10;;
78312;SDS011;67568;47.438;21.408;2023-06-10T14:51:26;5.43;;;2.50;;
78312;SDS011;67568;47.438;21.408;2023-06-10T14:53:53;5.20;;;2.30;;
78312;SDS011;67568;47.438;21.408;2023-06-10T14:56:20;6.45;;;2.20;;
78312;SDS011;67568;47.438;21.408;2023-06-10T14:58:47;5.75;;;2.55;;